LFQQLFQG

Guest
Details From LFQQ - Lille Lesquin
To LFQG - Nevers Fourchambault
Flight Number -
Tags generated
Created
Modified
Stats Distance 217 nm / 401 km
Max Altitude 24,200 ft / 7,376 m
Waypoints 4
Social Downloads 0
Likes 0
Share VATSIM

Download

Looking for another format? Having issues loading an existing format? Contact us
Advertisement - Login to hide

Notes

Basic altitude profile: - Ascent Rate: 2500ft/min - Ascent Speed: 250kts - Cruise Altitude: 35000ft - Cruise Speed: 420kts - Descent Rate: 1500ft/min - Descent Speed: 250kts Options: - Use NATs: yes - Use PACOTS: yes - Use low airways: yes - Use high airways: yes

Route

LFQQ CLM UM733 BRY LFQG

ID Type Via Altitude Latitude Longitude Leg Dist Tot Dist Heading (true) Name
O LFQQ APT - 0 ft / 0 m 50.56633˚ 3.09538˚ - 0 nm - Lille Lesquin
CLM VOR - 24,200 ft / 7,376 m 48.84464˚ 3.01386˚ 103 nm 103 nm 182° / 182° COULOMMIERS Voisins VOR-DME
BRY VOR UM733 (AWY-HI) 19,500 ft / 5,944 m 48.40700˚ 3.29478˚ 28 nm 132 nm 157° / 157° BRAY SUR SEINE VOR-DME
O LFQG APT - 0 ft / 0 m 47.00290˚ 3.11348˚ 84 nm 216 nm 185° / 185° Nevers Fourchambault

Altitude Profile

Advertisement - Login to hide

Weather


0- 5 10 15 20 25 30 35+ Temperature / ° C

Clouds and Precipitation
Forecast for 2018-05-20 18:00 UTC. Updated an hour ago

Ground ~20,000 ft ~40,000 ft Winds

LFQQ

Details ICAO LFQQ (LIL)
Name Lille Lesquin
Region France
Timezone Europe/Paris (UTC+2.0)
Stats Elevation 156 ft / 48 m (AMSL)
Location 50.566335° 3.095384°
Runways 2
Magnetic Variation 0.763° E

METAR

LFQQ 201630Z AUTO 04008KT CAVOK 22/07 Q1018 TEMPO BKN060CB

Decode

TAF

TAF LFQQ 201100Z 2012/2118 03010KT CAVOK TEMPO 2018/2021 BKN060CB TEMPO 2112/2118 3000 SHRA BKN040CB

Decode

Departure Runways

ID Width Length Bearing (true) Bearing (mag) Surface Threshold Offset Overrun Length
02 98 ft / 30 m 5,168 ft / 1,575 m 14.83° 14.07° Asphalt 0 ft / 0 m 0 ft / 0 m
08 146 ft / 45 m 9,250 ft / 2,819 m 77.36° 76.60° Asphalt 0 ft / 0 m 0 ft / 0 m
20 98 ft / 30 m 5,168 ft / 1,575 m 194.83° 194.07° Asphalt 0 ft / 0 m 0 ft / 0 m
26 146 ft / 45 m 9,250 ft / 2,819 m 257.39° 256.63° Asphalt 918 ft / 280 m 0 ft / 0 m

LFQG

Details ICAO LFQG (NVS)
Name Nevers Fourchambault
Region France
Timezone Europe/Paris (UTC+2.0)
Stats Elevation 602 ft / 183 m (AMSL)
Location 47.002896° 3.113485°
Runways 2
Magnetic Variation 0.968° E

METAR

LFQG 201630Z AUTO 01008KT 330V040 9999 ///CB 23/09 Q1014

Decode

TAF

Not found

Destination Runways

ID Width Length Bearing (true) Bearing (mag) Surface Threshold Offset Overrun Length
12 98 ft / 30 m 5,333 ft / 1,626 m 122.03° 121.06° Asphalt 525 ft / 160 m 0 ft / 0 m
12L 197 ft / 60 m 3,053 ft / 931 m 122.04° 121.07° Grass 0 ft / 0 m 0 ft / 0 m
30 98 ft / 30 m 5,333 ft / 1,626 m 302.04° 301.07° Asphalt 1,280 ft / 390 m 0 ft / 0 m
30R 197 ft / 60 m 3,053 ft / 931 m 302.04° 301.07° Grass 0 ft / 0 m 0 ft / 0 m